Airfield :







YOU CAN JOIN US ON...

 
LOGIN :

Register | Disclaimer

   EN    FR    IT 

 









Legend :    VFR   Marginal VFR   IFR   Intensive IFR   Very Intensive IFR
Visi :
Ceiling :
>= 8 km
>= 3000ft
5 to 8 km
1000 to 3000 ft
1500m to 5 km
500 to 1000 ft
800 to 1500m
200 to 500 ft
< 800m
< 200 ft
Symbols :   Thunderstorms  Fog  Heavy snow  Heavy precipitations  Wind > 20 kt






- Airport Elevation : 732 ft


KMVL - Morrisville Stowe State

CURRENT METAR :
  • 091954Z AUTO 00000KT 9SM -RA BKN009 OVC014 03/02 A2981 RMK AO2 RAE35B50 CIG 006V010 SLP103 P0001 T00330022

EXPIRED METARs :
  • 091947Z AUTO 00000KT 8SM BKN009 OVC016 03/02 A2982 RMK AO2 RAE35 P0001 T00330022
  • 091939Z AUTO 13003KT 8SM FEW009 OVC016 03/02 A2982 RMK AO2 RAE35 P0000 T00330022
  • 091854Z AUTO 14003KT 10SM -RA FEW015 BKN025 OVC030 03/02 A2986 RMK AO2 RAB18 SLP121 P0000 T00330017
  • 091827Z AUTO 16003KT 10SM -RA FEW020 BKN025 OVC042 03/02 A2989 RMK AO2 RAB18 P0000 T00330017
  • 091754Z AUTO 00000KT 10SM FEW038 BKN110 03/01 A2992 RMK AO2 SLP141 60004 I6001 T00330011 10033 20006 58051

TAF N/A



MET'MAP, your aeronautical weather chart ! - Copyright ORBIFLY December 2007 - Disclaimer

ORBIFLY MET'MAP TEAM :

Programming & Development : Alexandra Zaïnal
Concept & original design : Baudouin d'Aumeries
Assistance for programming : Marc-Olivier Méhu
Technical & hardware support : Manuel Goepfert

Contact : metmap@orbifly.com




SOURCES & CREDITS :

   NOAA